首页
METAR-TAF:

METAR-TAF

机场 :

沈阳, 中华人民共和国

沈阳桃仙国际机场

纬度: 41-48N, 经度: 123-24E, 海拔: 35米

当前天气观测

该预报发布于17分钟前的05:30 UTC
风速10节,风向西南,在西转西南之间变化
温度 2°C
湿度 12%
气压 1023 hPa
能见度10公里或以上
1500米以下无云,无积雨云

METAR: ZYTX 250530Z 22005MPS 180V240 CAVOK 02/M24 Q1023 NOSIG

时间: 13:47 (05:47 UTC)

预报

该预报发布于4小时和32分钟前的01:15 UTC
预报有效从25日的 06点(UTC)到 26日的 06点(UTC)
风速8节,风向南转西南
能见度10公里或以上
1500米以下无云,无积雨云

TAF: ZYTX 250115Z 2506/2606 20004MPS CAVOK TX03/2506Z TNM15/21Z

超过4000个机场的气象观测和天气预报(METAR&TAF报告)。

可查询的气象台以黄色和红色小点在地图上表示。

将鼠标移到小点上方,可查看气象台名称。

然后点击查看天气观测和预报。

如需切换地图:点击带黑十字的绿色按钮放大地图;点击带横线的绿色按钮缩小地图;或者点击绿色箭头查看邻近地区的地图。


METAR-TAF: